createdAt,value
2022-12-15T00:02:19.971Z,19.83
2022-12-15T00:05:06.615Z,20.55
2022-12-15T00:07:53.100Z,19.95
2022-12-15T00:10:39.245Z,20.42
2022-12-15T00:13:32.671Z,19.92
2022-12-15T00:16:19.087Z,22.08
2022-12-15T00:19:05.576Z,21.15
2022-12-15T00:21:51.960Z,20.73
2022-12-15T00:24:37.918Z,22.02
2022-12-15T00:27:24.569Z,20.42
2022-12-15T00:30:10.788Z,19.48
2022-12-15T00:32:57.105Z,21.05
2022-12-15T00:35:43.574Z,19.73
2022-12-15T00:38:31.894Z,20.58
2022-12-15T00:41:00.280Z,19.83
2022-12-15T00:43:29.421Z,20.45
2022-12-15T00:46:16.467Z,19.83
2022-12-15T00:48:44.307Z,20.10
2022-12-15T00:51:11.951Z,21.38
2022-12-15T00:53:58.684Z,20.42
2022-12-15T00:56:45.193Z,19.85
2022-12-15T00:59:31.781Z,20.13
2022-12-15T01:02:18.048Z,19.92
2022-12-15T01:05:04.141Z,19.83
2022-12-15T01:07:50.576Z,20.85
2022-12-15T01:10:37.645Z,21.48
2022-12-15T01:13:24.307Z,20.77
2022-12-15T01:16:10.610Z,20.80
2022-12-15T01:18:56.852Z,18.55
2022-12-15T01:21:25.532Z,20.15
2022-12-15T01:23:53.978Z,19.17
2022-12-15T01:26:21.486Z,19.90
2022-12-15T01:28:49.096Z,19.48
2022-12-15T01:31:16.658Z,18.38
2022-12-15T01:33:44.231Z,18.15
2022-12-15T01:36:12.208Z,18.13
2022-12-15T01:38:39.711Z,17.95
2022-12-15T01:41:09.997Z,17.85
2022-12-15T01:43:38.632Z,17.30
2022-12-15T01:46:07.525Z,18.80
2022-12-15T01:48:54.125Z,18.85
2022-12-15T01:51:26.715Z,17.88
2022-12-15T01:54:06.537Z,18.77
2022-12-15T01:56:37.711Z,18.38
2022-12-15T01:59:08.166Z,20.00
2022-12-15T02:01:35.957Z,17.90
2022-12-15T02:04:03.926Z,18.10
2022-12-15T02:06:31.424Z,17.58
2022-12-15T02:09:00.221Z,17.52
2022-12-15T02:11:41.573Z,17.88
2022-12-15T02:14:10.936Z,16.70
2022-12-15T02:16:44.668Z,17.23
2022-12-15T02:19:27.704Z,16.35
2022-12-15T02:21:55.183Z,16.27
2022-12-15T02:24:41.134Z,16.70
2022-12-15T02:27:21.024Z,18.00
2022-12-15T02:30:07.492Z,18.02
2022-12-15T02:32:39.624Z,16.60
2022-12-15T02:35:09.698Z,17.98
2022-12-15T02:37:38.612Z,16.83
2022-12-15T02:40:08.490Z,17.80
2022-12-15T02:42:37.540Z,18.73
2022-12-15T02:45:10.770Z,19.02
2022-12-15T02:47:46.014Z,19.20
2022-12-15T02:50:32.510Z,19.60
2022-12-15T02:53:15.384Z,19.85
2022-12-15T02:56:01.771Z,19.40
2022-12-15T02:58:36.940Z,19.95
2022-12-15T03:01:07.168Z,20.00
2022-12-15T03:03:36.022Z,19.15
2022-12-15T03:06:04.205Z,20.48
2022-12-15T03:08:31.768Z,20.55
2022-12-15T03:10:59.412Z,21.63
2022-12-15T03:13:27.027Z,21.10
2022-12-15T03:15:54.606Z,20.13
2022-12-15T03:18:22.295Z,20.98
2022-12-15T03:20:51.037Z,20.85
2022-12-15T03:23:18.557Z,21.33
2022-12-15T03:25:46.397Z,19.95
2022-12-15T03:28:17.792Z,21.27
2022-12-15T03:30:45.303Z,21.40
2022-12-15T03:33:17.897Z,22.92
2022-12-15T03:35:45.407Z,21.92
2022-12-15T03:38:13.179Z,22.15
2022-12-15T03:40:40.804Z,23.02
2022-12-15T03:43:08.321Z,23.58
2022-12-15T03:45:35.911Z,23.25
2022-12-15T03:48:03.471Z,21.83
2022-12-15T03:50:31.061Z,21.65
2022-12-15T03:52:59.605Z,20.88
2022-12-15T03:55:28.745Z,22.10
2022-12-15T03:57:56.465Z,20.85
2022-12-15T04:00:24.705Z,22.10
2022-12-15T04:02:52.616Z,21.73
2022-12-15T04:05:28.438Z,22.35
2022-12-15T04:07:56.933Z,22.83
2022-12-15T04:10:30.260Z,22.95
2022-12-15T04:13:02.370Z,23.60
2022-12-15T04:15:30.146Z,21.20
2022-12-15T04:17:58.380Z,22.38
2022-12-15T04:20:25.955Z,22.08
2022-12-15T04:22:53.513Z,22.58
2022-12-15T04:25:41.807Z,21.65
2022-12-15T04:28:28.958Z,22.88
2022-12-15T04:31:30.366Z,23.67
2022-12-15T04:34:24.419Z,22.38
2022-12-15T04:37:12.025Z,22.23
2022-12-15T04:40:00.117Z,23.27
2022-12-15T04:42:47.126Z,22.85
2022-12-15T04:45:34.379Z,24.45
2022-12-15T04:48:20.635Z,23.85
2022-12-15T04:51:06.967Z,24.77
2022-12-15T04:53:53.119Z,24.23
2022-12-15T04:56:39.335Z,22.13
2022-12-15T04:59:25.818Z,23.85
2022-12-15T05:02:12.294Z,22.10
2022-12-15T05:04:58.623Z,24.60
2022-12-15T05:07:44.996Z,23.17
2022-12-15T05:10:31.289Z,23.38
2022-12-15T05:13:27.021Z,22.80
2022-12-15T05:16:13.391Z,22.50
2022-12-15T05:18:59.913Z,22.70
2022-12-15T05:21:46.014Z,22.88
2022-12-15T05:24:32.478Z,23.30
2022-12-15T05:27:18.736Z,23.17
2022-12-15T05:30:04.715Z,22.67
2022-12-15T05:32:33.157Z,22.27
2022-12-15T05:35:01.279Z,22.92
2022-12-15T05:37:28.847Z,24.08
2022-12-15T05:39:56.369Z,22.20
2022-12-15T05:42:23.892Z,23.25
2022-12-15T05:44:51.455Z,24.58
2022-12-15T05:47:18.961Z,22.77
2022-12-15T05:49:46.483Z,22.92
2022-12-15T05:52:14.003Z,22.50
2022-12-15T05:54:42.375Z,23.58
2022-12-15T05:57:09.895Z,22.50
2022-12-15T05:59:37.413Z,22.75
2022-12-15T06:02:05.090Z,22.15
2022-12-15T06:04:32.892Z,22.42
2022-12-15T06:07:00.461Z,22.00
2022-12-15T06:09:28.927Z,20.85
2022-12-15T06:11:56.448Z,23.33
2022-12-15T06:14:23.984Z,22.38
2022-12-15T06:16:51.834Z,22.00
2022-12-15T06:19:20.153Z,22.70
2022-12-15T06:21:47.719Z,21.45
2022-12-15T06:24:15.305Z,21.13
2022-12-15T06:26:42.844Z,21.58
2022-12-15T06:29:11.959Z,21.85
2022-12-15T06:31:40.171Z,21.83
2022-12-15T06:34:09.077Z,21.58
2022-12-15T06:36:37.043Z,21.85
2022-12-15T06:39:05.280Z,20.90
2022-12-15T06:41:33.107Z,21.40
2022-12-15T06:44:01.436Z,20.92
2022-12-15T06:46:30.337Z,21.92
2022-12-15T06:48:58.246Z,22.73
2022-12-15T06:51:26.184Z,21.77
2022-12-15T06:53:55.711Z,20.83
2022-12-15T06:56:30.591Z,21.45
2022-12-15T06:59:02.228Z,22.25
2022-12-15T07:01:30.922Z,22.83
2022-12-15T07:04:02.977Z,23.13
2022-12-15T07:06:36.746Z,22.33
2022-12-15T07:09:05.421Z,24.33
2022-12-15T07:11:32.983Z,22.33
2022-12-15T07:14:00.570Z,22.98
2022-12-15T07:16:28.204Z,22.65
2022-12-15T07:18:55.737Z,22.27
2022-12-15T07:21:23.506Z,23.75
2022-12-15T07:23:56.404Z,23.58
2022-12-15T07:26:25.227Z,23.38
2022-12-15T07:28:53.815Z,23.25
2022-12-15T07:31:21.836Z,22.73
2022-12-15T07:33:49.608Z,23.80
2022-12-15T07:36:17.231Z,23.10
2022-12-15T07:38:49.852Z,37.40
2022-12-15T07:41:19.213Z,22.45
2022-12-15T07:43:47.536Z,24.13
2022-12-15T07:46:15.350Z,23.33
2022-12-15T07:48:43.062Z,24.00
2022-12-15T07:51:18.789Z,24.50
2022-12-15T07:53:50.948Z,24.52
2022-12-15T07:58:46.716Z,23.45
2022-12-15T08:01:15.335Z,23.40
2022-12-15T08:03:43.318Z,22.88
2022-12-15T08:06:12.423Z,23.17
2022-12-15T08:08:40.714Z,24.20
2022-12-15T08:11:09.485Z,23.65
2022-12-15T08:16:25.104Z,24.20
2022-12-15T08:18:52.798Z,23.40
2022-12-15T08:21:20.345Z,24.00
2022-12-15T08:23:47.978Z,24.40
2022-12-15T08:26:16.762Z,24.70
2022-12-15T08:28:44.692Z,25.33
2022-12-15T08:31:22.309Z,23.55
2022-12-15T08:33:50.249Z,24.52
2022-12-15T08:36:18.743Z,22.77
2022-12-15T08:38:46.672Z,24.13
2022-12-15T08:41:24.255Z,24.48
2022-12-15T08:43:52.105Z,24.08
2022-12-15T08:46:21.286Z,23.13
2022-12-15T08:48:49.174Z,23.35
2022-12-15T08:51:17.322Z,22.80
2022-12-15T08:53:45.657Z,25.00
2022-12-15T08:56:15.959Z,23.55
2022-12-15T08:58:43.775Z,22.20
2022-12-15T09:01:22.471Z,22.45
2022-12-15T09:03:51.876Z,23.45
2022-12-15T09:06:23.988Z,24.00
2022-12-15T09:08:54.465Z,22.65
2022-12-15T09:11:22.122Z,22.60
2022-12-15T09:13:49.667Z,22.58
2022-12-15T09:16:17.729Z,23.70
2022-12-15T09:18:46.598Z,22.25
2022-12-15T09:21:14.452Z,22.98
2022-12-15T09:23:42.107Z,23.83
2022-12-15T09:26:11.585Z,23.30
2022-12-15T09:28:39.404Z,22.85
2022-12-15T09:31:14.902Z,23.83
2022-12-15T09:33:43.173Z,24.65
2022-12-15T09:36:13.153Z,23.65
2022-12-15T09:38:41.685Z,23.85
2022-12-15T09:41:15.391Z,24.92
2022-12-15T09:43:49.935Z,24.90
2022-12-15T09:46:21.874Z,24.80
2022-12-15T09:51:18.574Z,24.52
2022-12-15T09:53:55.195Z,25.10
2022-12-15T09:56:27.628Z,24.50
2022-12-15T10:01:31.527Z,25.58
2022-12-15T10:04:02.419Z,24.40
2022-12-15T10:06:34.438Z,25.45
2022-12-15T10:09:04.742Z,24.17
2022-12-15T10:11:55.383Z,25.17
2022-12-15T10:14:36.638Z,24.85
2022-12-15T10:17:04.167Z,24.45
2022-12-15T10:19:38.855Z,24.42
2022-12-15T10:22:06.632Z,26.33
2022-12-15T10:27:28.354Z,25.67
2022-12-15T10:30:02.468Z,24.20
2022-12-15T10:32:30.139Z,24.77
2022-12-15T10:34:57.821Z,25.25
2022-12-15T10:38:10.394Z,23.52
2022-12-15T10:40:55.255Z,24.08
2022-12-15T10:43:31.912Z,24.15
2022-12-15T10:46:05.003Z,24.13
2022-12-15T10:48:32.819Z,26.00
2022-12-15T10:51:17.620Z,24.75
2022-12-15T10:53:50.674Z,25.38
2022-12-15T10:56:28.821Z,24.80
2022-12-15T10:59:02.748Z,26.17
2022-12-15T11:01:45.270Z,24.88
2022-12-15T11:04:25.991Z,25.90
2022-12-15T11:06:57.122Z,25.27
2022-12-15T11:09:29.469Z,25.20
2022-12-15T11:12:15.629Z,25.60
2022-12-15T11:14:48.157Z,25.30
2022-12-15T11:17:17.201Z,25.63
2022-12-15T11:19:49.166Z,26.90
2022-12-15T11:22:38.040Z,26.90
2022-12-15T11:25:24.555Z,27.80
2022-12-15T11:27:54.887Z,27.33
2022-12-15T11:30:23.082Z,27.65
2022-12-15T11:32:59.556Z,28.63
2022-12-15T11:35:42.147Z,27.77
2022-12-15T11:38:15.121Z,26.95
2022-12-15T11:40:43.544Z,26.50
2022-12-15T11:43:32.481Z,27.73
2022-12-15T11:46:06.927Z,26.88
2022-12-15T11:48:40.563Z,27.48
2022-12-15T11:51:27.224Z,27.85
2022-12-15T11:54:10.200Z,26.75
2022-12-15T11:56:45.418Z,27.85
2022-12-15T11:59:32.348Z,28.63
2022-12-15T12:02:18.881Z,28.23
2022-12-15T12:04:50.819Z,28.08
2022-12-15T12:07:28.762Z,27.80
2022-12-15T12:10:15.251Z,29.77
2022-12-15T12:12:47.371Z,27.95
2022-12-15T12:15:34.332Z,28.38
2022-12-15T12:18:08.198Z,29.33
2022-12-15T12:20:36.061Z,28.35
2022-12-15T12:23:12.882Z,28.95
2022-12-15T12:25:51.642Z,28.73
2022-12-15T12:28:30.557Z,28.25
2022-12-15T12:31:00.345Z,28.35
2022-12-15T12:33:34.103Z,30.25
2022-12-15T12:36:06.079Z,29.25
2022-12-15T12:38:41.627Z,30.02
2022-12-15T12:41:21.834Z,30.30
2022-12-15T12:43:53.575Z,28.42
2022-12-15T12:48:56.117Z,28.67
2022-12-15T12:51:31.396Z,28.42
2022-12-15T12:53:59.898Z,29.23
2022-12-15T12:56:45.323Z,28.10
2022-12-15T12:59:33.456Z,28.17
2022-12-15T13:02:20.157Z,28.05
2022-12-15T13:04:54.602Z,27.65
2022-12-15T13:07:30.097Z,27.67
2022-12-15T13:10:03.878Z,27.33
2022-12-15T13:12:54.794Z,27.95
2022-12-15T13:15:28.856Z,28.17
2022-12-15T13:18:11.677Z,26.60
2022-12-15T13:20:40.230Z,26.58
2022-12-15T13:23:24.501Z,26.83
2022-12-15T13:25:56.407Z,26.88
2022-12-15T13:28:29.908Z,27.50
2022-12-15T13:31:16.732Z,27.92
2022-12-15T13:33:51.032Z,28.23
2022-12-15T13:36:50.727Z,26.92
2022-12-15T13:39:22.587Z,26.85
2022-12-15T13:42:31.716Z,25.75
2022-12-15T13:44:45.541Z,19.52
2022-12-15T13:47:30.754Z,28.50
2022-12-15T13:50:02.687Z,27.60
2022-12-15T13:55:40.955Z,28.27
2022-12-15T13:58:16.859Z,28.23
2022-12-15T14:00:49.221Z,28.10
2022-12-15T14:03:18.602Z,29.92
2022-12-15T14:05:50.272Z,27.10
2022-12-15T14:08:19.222Z,29.42
2022-12-15T14:10:53.607Z,28.60
2022-12-15T14:13:21.896Z,31.88
2022-12-15T14:15:54.768Z,30.73
2022-12-15T14:18:24.213Z,30.48
2022-12-15T14:20:51.913Z,30.00
2022-12-15T14:23:20.932Z,30.88
2022-12-15T14:25:55.753Z,30.58
2022-12-15T14:28:30.559Z,29.73
2022-12-15T14:30:59.633Z,30.52
2022-12-15T14:33:29.785Z,31.02
2022-12-15T14:35:58.434Z,31.67
2022-12-15T14:38:40.977Z,32.97
2022-12-15T14:41:21.074Z,29.77
2022-12-15T14:44:30.704Z,31.48
2022-12-15T14:46:40.380Z,28.98
2022-12-15T14:49:10.960Z,29.98
2022-12-15T14:51:43.501Z,30.02
2022-12-15T14:54:33.370Z,31.10
2022-12-15T14:57:09.747Z,31.33
2022-12-15T14:59:40.753Z,28.85
2022-12-15T15:02:14.411Z,30.63
2022-12-15T15:04:42.335Z,30.40
2022-12-15T15:07:17.394Z,31.02
2022-12-15T15:09:46.792Z,29.08
2022-12-15T15:12:25.546Z,30.00
2022-12-15T15:14:55.105Z,29.65
2022-12-15T15:17:22.779Z,29.00
2022-12-15T15:19:52.556Z,32.22
2022-12-15T15:22:33.574Z,30.55
2022-12-15T15:25:01.812Z,28.50
2022-12-15T15:27:35.524Z,28.05
2022-12-15T15:30:17.944Z,28.45
2022-12-15T15:32:59.518Z,28.98
2022-12-15T15:35:31.102Z,28.77
2022-12-15T15:38:05.138Z,27.98
2022-12-15T15:40:32.807Z,26.88
2022-12-15T15:43:00.955Z,28.10
2022-12-15T15:45:28.667Z,27.67
2022-12-15T15:47:56.545Z,27.35
2022-12-15T15:50:27.660Z,28.23
2022-12-15T15:52:55.550Z,29.38
2022-12-15T15:55:37.817Z,27.60
2022-12-15T15:58:17.452Z,26.45
2022-12-15T16:01:12.920Z,27.52
2022-12-15T16:03:41.976Z,27.55
2022-12-15T16:06:16.430Z,26.92
2022-12-15T16:08:49.766Z,29.50
2022-12-15T16:11:22.419Z,27.67
2022-12-15T16:13:53.312Z,28.88
2022-12-15T16:16:32.944Z,28.92
2022-12-15T16:19:00.687Z,28.92
2022-12-15T16:21:28.807Z,28.30
2022-12-15T16:23:56.964Z,29.15
2022-12-15T16:26:28.637Z,30.27
2022-12-15T16:28:56.246Z,29.27
2022-12-15T16:31:37.107Z,29.92
2022-12-15T16:34:06.827Z,30.77
2022-12-15T16:36:35.123Z,30.13
2022-12-15T16:39:02.981Z,29.40
2022-12-15T16:41:30.575Z,30.45
2022-12-15T16:43:58.651Z,28.90
2022-12-15T16:46:26.777Z,29.92
2022-12-15T16:48:56.316Z,29.02
2022-12-15T16:51:32.880Z,29.00
2022-12-15T16:54:03.892Z,28.23
2022-12-15T16:56:34.073Z,28.75
2022-12-15T16:59:31.984Z,28.95
2022-12-15T17:01:49.566Z,28.98
2022-12-15T17:04:19.145Z,28.48
2022-12-15T17:06:46.946Z,29.15
2022-12-15T17:09:20.509Z,28.40
2022-12-15T17:11:48.493Z,29.25
2022-12-15T17:14:16.158Z,29.05
2022-12-15T17:16:43.833Z,28.90
2022-12-15T17:19:13.919Z,29.63
2022-12-15T17:21:46.818Z,30.58
2022-12-15T17:24:15.494Z,28.02
2022-12-15T17:26:44.370Z,29.92
2022-12-15T17:29:17.078Z,29.13
2022-12-15T17:31:45.085Z,30.23
2022-12-15T17:34:36.065Z,29.98
2022-12-15T17:37:05.444Z,28.70
2022-12-15T17:39:34.284Z,29.52
2022-12-15T17:42:02.800Z,30.98
2022-12-15T17:44:35.690Z,30.25
2022-12-15T17:47:06.149Z,31.90
2022-12-15T17:49:36.649Z,30.48
2022-12-15T17:52:23.199Z,33.13
2022-12-15T17:54:51.523Z,32.17
2022-12-15T17:57:19.163Z,32.95
2022-12-15T17:59:47.276Z,33.60
2022-12-15T18:02:15.412Z,34.38
2022-12-15T18:04:43.712Z,32.80
2022-12-15T18:07:16.274Z,36.22
2022-12-15T18:09:44.038Z,32.55
2022-12-15T18:12:16.920Z,34.67
2022-12-15T18:14:44.578Z,33.38
2022-12-15T18:17:12.161Z,34.60
2022-12-15T18:19:42.366Z,33.33
2022-12-15T18:22:18.724Z,33.80
2022-12-15T18:24:46.767Z,35.28
2022-12-15T18:27:19.389Z,34.92
2022-12-15T18:29:47.229Z,33.88
2022-12-15T18:32:14.835Z,35.15
2022-12-15T18:34:42.468Z,34.28
2022-12-15T18:37:17.407Z,36.90
2022-12-15T18:39:45.679Z,36.75
2022-12-15T18:42:15.235Z,37.65
2022-12-15T18:44:46.177Z,35.10
2022-12-15T18:47:21.152Z,36.22
2022-12-15T18:49:48.882Z,35.78
2022-12-15T18:52:21.106Z,35.97
2022-12-15T18:54:49.471Z,37.08
2022-12-15T18:57:30.578Z,34.85
2022-12-15T18:59:59.762Z,34.83
2022-12-15T19:02:27.490Z,34.85
2022-12-15T19:04:55.205Z,32.70
2022-12-15T19:07:22.800Z,34.50
2022-12-15T19:09:50.557Z,35.25
2022-12-15T19:12:18.169Z,33.17
2022-12-15T19:14:47.075Z,35.42
2022-12-15T19:17:35.088Z,35.88
2022-12-15T19:20:21.975Z,33.42
2022-12-15T19:22:49.628Z,35.30
2022-12-15T19:25:25.887Z,35.42
2022-12-15T19:28:00.691Z,34.50
2022-12-15T19:30:29.827Z,36.50
2022-12-15T19:32:57.472Z,34.65
2022-12-15T19:35:25.200Z,34.92
2022-12-15T19:37:55.998Z,35.55
2022-12-15T19:40:27.325Z,36.40
2022-12-15T19:42:55.476Z,37.35
2022-12-15T19:45:24.788Z,33.47
2022-12-15T19:47:52.427Z,35.20
2022-12-15T19:50:21.573Z,35.13
2022-12-15T19:52:57.306Z,34.63
2022-12-15T19:55:27.054Z,34.08
2022-12-15T19:57:54.756Z,33.85
2022-12-15T20:00:22.866Z,36.15
2022-12-15T20:02:51.574Z,34.13
2022-12-15T20:05:20.176Z,33.53
2022-12-15T20:07:48.023Z,34.75
2022-12-15T20:10:27.518Z,32.30
2022-12-15T20:12:57.290Z,32.65
2022-12-15T20:15:26.092Z,31.67
2022-12-15T20:17:56.535Z,34.22
2022-12-15T20:20:25.043Z,33.10
2022-12-15T20:22:54.780Z,34.03
2022-12-15T20:25:30.431Z,31.50
2022-12-15T20:28:00.489Z,30.17
2022-12-15T20:30:32.172Z,31.30
2022-12-15T20:35:28.540Z,29.70
2022-12-15T20:37:56.384Z,30.20
2022-12-15T20:40:29.621Z,30.58
2022-12-15T20:43:00.208Z,26.83
2022-12-15T20:45:39.191Z,28.23
2022-12-15T20:48:22.404Z,27.55
2022-12-15T20:50:53.424Z,27.63
2022-12-15T20:53:27.305Z,26.45
2022-12-15T20:56:01.393Z,27.50
2022-12-15T20:58:33.402Z,27.17
2022-12-15T21:01:01.437Z,25.90
2022-12-15T21:03:31.179Z,26.48
2022-12-15T21:05:59.548Z,23.25
2022-12-15T21:08:29.572Z,23.98
2022-12-15T21:11:00.541Z,21.55
2022-12-15T21:13:31.093Z,21.95
2022-12-15T21:15:59.036Z,20.83
2022-12-15T21:19:10.954Z,20.92
2022-12-15T21:21:20.568Z,21.45
2022-12-15T21:23:48.724Z,21.45
2022-12-15T21:26:20.273Z,21.23
2022-12-15T21:28:48.873Z,20.85
2022-12-15T21:31:17.269Z,20.38
2022-12-15T21:33:46.493Z,20.95
2022-12-15T21:36:14.931Z,19.90
2022-12-15T21:38:43.675Z,19.42
2022-12-15T21:41:16.181Z,18.65
2022-12-15T21:43:43.947Z,19.02
2022-12-15T21:46:16.664Z,19.67
2022-12-15T21:49:03.008Z,19.35
2022-12-15T21:51:32.167Z,18.85
2022-12-15T21:53:59.893Z,18.23
2022-12-15T21:56:28.622Z,17.67
2022-12-15T21:58:56.608Z,17.15
2022-12-15T22:01:29.042Z,17.30
2022-12-15T22:03:58.259Z,15.45
2022-12-15T22:06:27.308Z,16.77
2022-12-15T22:08:58.628Z,14.65
2022-12-15T22:11:29.033Z,15.18
2022-12-15T22:13:57.869Z,14.73
2022-12-15T22:16:27.183Z,13.70
2022-12-15T22:18:56.348Z,14.45
2022-12-15T22:21:25.028Z,14.77
2022-12-15T22:23:53.574Z,14.48
2022-12-15T22:26:23.972Z,14.52
2022-12-15T22:28:56.161Z,13.85
2022-12-15T22:31:24.416Z,14.10
2022-12-15T22:33:55.620Z,14.63
2022-12-15T22:36:23.413Z,14.55
2022-12-15T22:38:51.480Z,15.40
2022-12-15T22:41:24.420Z,14.48
2022-12-15T22:43:53.380Z,15.25
2022-12-15T22:46:24.414Z,15.48
2022-12-15T22:48:54.743Z,14.95
2022-12-15T22:51:23.098Z,14.77
2022-12-15T22:53:50.830Z,14.98
2022-12-15T22:56:22.421Z,15.60
2022-12-15T22:58:51.569Z,15.25
2022-12-15T23:01:19.490Z,15.48
2022-12-15T23:03:47.443Z,16.38
2022-12-15T23:06:15.052Z,14.35
2022-12-15T23:08:42.806Z,15.20
2022-12-15T23:11:29.127Z,14.20
2022-12-15T23:13:56.759Z,14.13
2022-12-15T23:16:24.403Z,15.88
2022-12-15T23:18:53.494Z,15.98
2022-12-15T23:21:23.743Z,15.25
2022-12-15T23:23:51.728Z,15.00
2022-12-15T23:26:20.927Z,15.18
2022-12-15T23:28:49.465Z,14.93
2022-12-15T23:31:17.440Z,15.60
2022-12-15T23:33:45.230Z,15.52
2022-12-15T23:36:13.295Z,16.50
2022-12-15T23:38:40.968Z,14.88
2022-12-15T23:41:08.671Z,17.00
2022-12-15T23:43:39.008Z,15.70
2022-12-15T23:46:07.930Z,16.50
2022-12-15T23:48:37.281Z,16.67
2022-12-15T23:51:05.057Z,16.50
2022-12-15T23:53:33.954Z,16.45
2022-12-15T23:56:21.229Z,17.55
2022-12-15T23:58:54.765Z,16.23
